Time;durP1;ratioP1;P1;durP2;ratioP2;P2;SDS_P1;SDS_P2;PMS_P1;PMS_P2;Temp;Humidity;BMP_temperature;BMP_pressure;BME280_temperature;BME280_humidity;BME280_pressure;Samples;Min_cycle;Max_cycle;Signal;HPM_P1;HPM_P2
2021/04/07 00:01:06;;;;;;;3.27;2.40;;;;;;;3.63;100.00;97189.03;5133840;27;20199;-67
2021/04/07 00:03:32;;;;;;;2.83;2.50;;;;;;;3.71;100.00;97188.28;5133176;27;20668;-67
2021/04/07 00:05:58;;;;;;;2.83;2.10;;;;;;;3.79;100.00;97186.69;5134664;27;20203;-68
2021/04/07 00:08:26;;;;;;;3.67;2.57;;;;;;;3.85;100.00;97180.75;5136109;27;20223;-67
2021/04/07 00:10:53;;;;;;;3.90;2.90;;;;;;;3.90;100.00;97188.81;5137202;27;20234;-67
2021/04/07 00:13:20;;;;;;;5.23;2.60;;;;;;;3.98;100.00;97179.84;5133311;27;20235;-67
2021/04/07 00:15:46;;;;;;;3.03;2.33;;;;;;;3.82;100.00;97186.88;5114049;27;20309;-67
2021/04/07 00:18:13;;;;;;;5.17;2.60;;;;;;;3.74;100.00;97184.91;5132891;27;20775;-66
2021/04/07 00:20:39;;;;;;;3.70;2.23;;;;;;;3.81;100.00;97184.47;5132970;27;20259;-68
2021/04/07 00:23:06;;;;;;;5.37;2.30;;;;;;;4.06;100.00;97180.97;5132802;27;20298;-68
2021/04/07 00:25:33;;;;;;;3.50;2.40;;;;;;;3.88;100.00;97182.06;5133089;27;20219;-68
2021/04/07 00:28:06;;;;;;;4.23;2.40;;;;;;;4.00;100.00;97187.69;5132897;27;20238;-68
2021/04/07 00:30:35;;;;;;;5.60;2.60;;;;;;;3.95;100.00;97180.47;5117306;27;20208;-67
2021/04/07 00:33:02;;;;;;;3.60;2.50;;;;;;;3.91;100.00;97179.50;5111554;28;20243;-69
2021/04/07 00:35:29;;;;;;;3.40;2.40;;;;;;;3.93;100.00;97179.19;5111538;28;20224;-69
2021/04/07 00:37:56;;;;;;;4.37;2.43;;;;;;;3.78;100.00;97183.16;5111525;28;20239;-68
2021/04/07 00:40:22;;;;;;;4.13;2.40;;;;;;;3.86;100.00;97176.13;5111900;28;20299;-68
2021/04/07 00:42:52;;;;;;;3.03;2.20;;;;;;;3.95;100.00;97180.47;5111329;28;20223;-68
2021/04/07 00:45:19;;;;;;;4.50;2.70;;;;;;;4.03;100.00;97179.69;5111691;28;20201;-67
2021/04/07 00:47:49;;;;;;;4.93;2.73;;;;;;;4.06;100.00;97180.97;5093582;28;20288;-67
2021/04/07 00:50:18;;;;;;;3.93;2.60;;;;;;;4.02;100.00;97185.47;5111841;28;20204;-67
2021/04/07 00:52:45;;;;;;;4.13;2.40;;;;;;;4.00;100.00;97182.25;5093535;28;20203;-67
2021/04/07 00:55:14;;;;;;;3.87;2.60;;;;;;;3.95;100.00;97185.13;5111485;28;20230;-67
2021/04/07 00:57:40;;;;;;;3.43;2.40;;;;;;;3.54;100.00;97190.94;5113371;28;20247;-68
2021/04/07 01:34:41;;;;;;;5.30;3.37;;;;;;;2.62;100.00;97201.81;5095424;27;21013;-69
2021/04/07 01:37:11;;;;;;;6.20;4.10;;;;;;;2.50;100.00;97196.09;5095930;28;20662;-68
2021/04/07 01:39:37;;;;;;;3.93;3.30;;;;;;;2.62;100.00;97203.72;5088176;28;20740;-68
2021/04/07 01:42:03;;;;;;;7.77;3.50;;;;;;;2.49;100.00;97199.94;5088480;28;20212;-67
2021/04/07 01:44:31;;;;;;;4.00;3.00;;;;;;;2.68;100.00;97207.94;5087873;28;20681;-68
2021/04/07 01:46:59;;;;;;;6.37;3.53;;;;;;;2.75;100.00;97206.41;5088787;28;20257;-67
2021/04/07 01:49:26;;;;;;;6.77;3.57;;;;;;;2.97;100.00;97214.53;5088181;28;20229;-68
2021/04/07 01:51:53;;;;;;;4.57;2.93;;;;;;;3.21;100.00;97216.94;5089270;28;20666;-68
2021/04/07 01:54:19;;;;;;;3.97;3.33;;;;;;;3.14;100.00;97218.50;5089183;28;20288;-68
2021/04/07 01:56:52;;;;;;;4.53;2.93;;;;;;;2.87;100.00;97214.81;5088302;28;20205;-67
2021/04/07 01:59:21;;;;;;;4.00;2.83;;;;;;;2.94;100.00;97211.63;5088133;28;20228;-68
2021/04/07 02:01:48;;;;;;;3.60;2.93;;;;;;;2.81;100.00;97216.03;5086454;28;20316;-67
2021/04/07 02:04:18;;;;;;;4.43;2.97;;;;;;;2.75;100.00;97219.22;5087591;28;20251;-68
2021/04/07 02:06:44;;;;;;;4.37;2.90;;;;;;;2.73;100.00;97226.88;5087859;28;20243;-68
2021/04/07 02:09:11;;;;;;;4.30;2.90;;;;;;;2.49;100.00;97218.19;5087631;28;20256;-68
2021/04/07 02:11:46;;;;;;;3.87;2.77;;;;;;;2.33;100.00;97231.38;5086806;28;20235;-67
2021/04/07 02:14:17;;;;;;;4.30;2.90;;;;;;;2.06;100.00;97228.72;5087087;28;20277;-67
2021/04/07 02:17:02;;;;;;;5.30;3.80;;;;;;;2.01;100.00;97235.03;5087534;28;20254;-68
2021/04/07 02:19:30;;;;;;;4.87;3.30;;;;;;;2.13;100.00;97228.28;5087696;28;20744;-68
2021/04/07 02:22:08;;;;;;;5.63;3.40;;;;;;;2.13;100.00;97231.81;5087870;28;20236;-69
2021/04/07 02:24:35;;;;;;;4.27;3.20;;;;;;;2.13;100.00;97241.88;5088126;28;20208;-69
2021/04/07 02:27:10;;;;;;;4.47;3.30;;;;;;;2.02;100.00;97239.41;5087281;28;20205;-68
2021/04/07 02:29:37;;;;;;;4.27;3.03;;;;;;;2.06;100.00;97242.31;5087011;28;20248;-66
2021/04/07 02:32:04;;;;;;;4.43;3.17;;;;;;;2.29;100.00;97245.88;5085927;28;20201;-69
2021/04/07 02:34:31;;;;;;;5.37;3.00;;;;;;;2.51;100.00;97241.28;5086632;28;20300;-69
2021/04/07 02:36:58;;;;;;;4.50;3.57;;;;;;;2.38;100.00;97249.47;5086680;28;20278;-69
2021/04/07 02:39:24;;;;;;;5.00;3.47;;;;;;;2.44;100.00;97248.25;5087028;28;20275;-68
2021/04/07 02:41:52;;;;;;;4.80;3.50;;;;;;;2.52;100.00;97250.28;5086841;28;20231;-68
2021/04/07 02:44:19;;;;;;;4.63;3.37;;;;;;;2.48;100.00;97243.81;5080717;28;20250;-68
2021/04/07 02:46:46;;;;;;;4.43;3.50;;;;;;;2.66;100.00;97251.84;5073357;28;20213;-68
2021/04/07 02:49:12;;;;;;;4.37;3.10;;;;;;;2.56;100.00;97254.78;5073454;28;20795;-68
2021/04/07 02:51:38;;;;;;;3.77;3.17;;;;;;;2.49;100.00;97250.88;5073535;28;20288;-68
2021/04/07 02:54:04;;;;;;;4.40;3.23;;;;;;;2.43;100.00;97250.19;5071809;28;20229;-68
2021/04/07 02:56:31;;;;;;;4.23;3.30;;;;;;;2.41;100.00;97254.34;5073141;28;20684;-67
2021/04/07 02:59:00;;;;;;;5.40;3.30;;;;;;;2.54;100.00;97253.47;5073022;28;20232;-67
2021/04/07 03:01:27;;;;;;;3.87;3.30;;;;;;;2.34;100.00;97254.75;5073271;28;20206;-66
2021/04/07 03:03:54;;;;;;;4.50;3.03;;;;;;;2.22;100.00;97250.94;5073045;28;20620;-66
2021/04/07 03:06:20;;;;;;;6.77;3.33;;;;;;;2.31;100.00;97252.63;5072992;28;20209;-66
2021/04/07 03:08:47;;;;;;;7.07;3.83;;;;;;;2.34;100.00;97262.09;5071896;28;20226;-67
2021/04/07 03:11:14;;;;;;;5.23;3.40;;;;;;;2.32;100.00;97258.91;5072881;28;20638;-68
2021/04/07 03:13:40;;;;;;;6.33;3.37;;;;;;;2.13;100.00;97272.63;5072540;28;20233;-68
2021/04/07 03:16:06;;;;;;;6.40;3.97;;;;;;;2.15;100.00;97273.13;5072462;28;20205;-66
2021/04/07 03:18:32;;;;;;;6.07;3.40;;;;;;;2.36;100.00;97268.03;5072966;28;20757;-67
2021/04/07 03:20:59;;;;;;;5.47;3.77;;;;;;;2.37;100.00;97275.91;5072827;28;20213;-66
2021/04/07 03:23:26;;;;;;;6.10;3.70;;;;;;;2.45;100.00;97266.19;5072588;28;20197;-67
2021/04/07 03:25:52;;;;;;;5.60;3.93;;;;;;;2.37;100.00;97277.84;5072546;28;20201;-66
2021/04/07 03:28:19;;;;;;;4.17;3.70;;;;;;;2.28;100.00;97283.16;5072594;28;20225;-66
2021/04/07 03:30:49;;;;;;;7.17;4.10;;;;;;;2.30;100.00;97285.59;5072719;28;20263;-66
2021/04/07 03:33:23;;;;;;;7.00;3.97;;;;;;;2.52;100.00;97282.94;5056290;28;20722;-66
2021/04/07 03:35:51;;;;;;;6.33;4.17;;;;;;;2.42;100.00;97285.88;5075170;28;20205;-66
2021/04/07 03:38:18;;;;;;;5.80;4.33;;;;;;;2.48;100.00;97298.28;5075335;28;20225;-66
2021/04/07 03:40:45;;;;;;;7.07;4.23;;;;;;;2.59;100.00;97294.22;5075374;28;20231;-68
2021/04/07 03:43:13;;;;;;;4.13;3.70;;;;;;;2.50;100.00;97302.28;5052462;28;20202;-68
2021/04/07 03:45:47;;;;;;;6.17;4.10;;;;;;;2.38;100.00;97298.47;5052427;28;20301;-68
2021/04/07 03:48:18;;;;;;;6.13;3.77;;;;;;;2.38;100.00;97303.94;5051872;28;20229;-69
2021/04/07 03:50:45;;;;;;;9.53;4.40;;;;;;;2.47;100.00;97311.06;5051987;28;20255;-68
2021/04/07 03:53:12;;;;;;;5.80;4.10;;;;;;;2.44;100.00;97313.59;5051580;28;20226;-68
2021/04/07 03:55:39;;;;;;;6.33;4.27;;;;;;;2.33;100.00;97317.66;5067858;28;20900;-67
2021/04/07 03:58:05;;;;;;;5.40;3.57;;;;;;;2.26;100.00;97315.34;5071614;28;20259;-68
2021/04/07 04:00:32;;;;;;;5.77;3.90;;;;;;;2.48;100.00;97317.34;5071788;28;20231;-67
2021/04/07 04:02:58;;;;;;;5.03;4.27;;;;;;;2.53;100.00;97320.75;5071381;28;20251;-67
2021/04/07 04:05:25;;;;;;;6.20;4.60;;;;;;;2.50;100.00;97321.34;5071518;28;20205;-68
2021/04/07 04:07:51;;;;;;;11.17;4.80;;;;;;;2.40;100.00;97318.03;5071939;28;20225;-68
2021/04/07 04:10:19;;;;;;;7.77;5.37;;;;;;;2.36;100.00;97322.47;5074330;28;20205;-68
2021/04/07 04:12:45;;;;;;;7.57;5.13;;;;;;;2.43;100.00;97323.69;5077228;28;20281;-67
2021/04/07 04:15:13;;;;;;;9.30;4.40;;;;;;;2.38;100.00;97325.69;5080949;28;20209;-67
2021/04/07 04:17:40;;;;;;;6.90;5.13;;;;;;;2.35;100.00;97326.31;5073871;28;20733;-67
2021/04/07 04:20:08;;;;;;;6.73;5.07;;;;;;;2.41;100.00;97330.56;5071467;28;20232;-66
2021/04/07 04:22:34;;;;;;;6.83;4.80;;;;;;;2.55;100.00;97334.88;5071527;28;20659;-68
2021/04/07 04:25:00;;;;;;;6.23;5.00;;;;;;;2.55;100.00;97348.50;5071365;28;20213;-66
2021/04/07 04:27:26;;;;;;;6.87;5.30;;;;;;;2.51;100.00;97349.38;5071800;28;20300;-67
2021/04/07 04:29:52;;;;;;;6.77;5.13;;;;;;;2.62;100.00;97348.06;5071730;28;20201;-67
2021/04/07 04:32:19;;;;;;;8.43;5.07;;;;;;;2.64;100.00;97362.19;5071300;28;20662;-67
2021/04/07 04:34:45;;;;;;;8.53;5.20;;;;;;;2.52;100.00;97365.41;5069739;28;20262;-67
2021/04/07 04:37:11;;;;;;;5.60;4.50;;;;;;;2.54;100.00;97357.75;5071122;28;20205;-68
2021/04/07 04:39:41;;;;;;;7.77;5.77;;;;;;;2.41;100.00;97360.50;5071402;28;20311;-68
2021/04/07 04:42:07;;;;;;;6.53;5.10;;;;;;;2.47;100.00;97362.00;5071265;28;20245;-68
2021/04/07 04:44:33;;;;;;;7.43;5.37;;;;;;;2.62;100.00;97364.41;5071116;28;20224;-67
2021/04/07 04:47:00;;;;;;;11.67;5.43;;;;;;;2.54;100.00;97367.81;5071127;28;20304;-67
2021/04/07 04:49:46;;;;;;;7.33;5.10;;;;;;;2.56;100.00;97371.88;5071159;28;20204;-67
2021/04/07 04:52:12;;;;;;;7.13;4.87;;;;;;;2.69;100.00;97368.31;5070721;28;20300;-66
2021/04/07 04:54:39;;;;;;;7.33;4.93;;;;;;;2.60;100.00;97366.63;5070627;28;20722;-67
2021/04/07 04:57:05;;;;;;;10.70;5.20;;;;;;;2.93;100.00;97370.78;5070750;28;20702;-68
2021/04/07 04:59:31;;;;;;;7.50;5.03;;;;;;;2.99;100.00;97364.91;5070761;28;20582;-66
2021/04/07 05:01:57;;;;;;;8.50;5.07;;;;;;;3.05;100.00;97374.59;5071065;28;20312;-69
2021/04/07 05:04:24;;;;;;;8.13;4.50;;;;;;;2.95;100.00;97384.91;5069721;28;20311;-69
2021/04/07 05:06:50;;;;;;;8.60;4.53;;;;;;;2.96;100.00;97386.50;5071544;28;20554;-67
2021/04/07 05:09:16;;;;;;;6.17;4.60;;;;;;;3.61;100.00;97386.88;5071036;28;20279;-69
2021/04/07 05:11:42;;;;;;;8.80;4.40;;;;;;;2.99;100.00;97399.53;5072526;28;20205;-67
2021/04/07 05:14:08;;;;;;;6.83;4.13;;;;;;;2.92;100.00;97399.94;5078148;28;20236;-67
2021/04/07 05:16:34;;;;;;;5.50;3.90;;;;;;;2.96;100.00;97402.84;5081019;28;20213;-67
2021/04/07 05:19:00;;;;;;;6.03;3.70;;;;;;;2.80;100.00;97407.84;5083493;28;20257;-67
2021/04/07 05:21:26;;;;;;;5.47;3.80;;;;;;;3.04;100.00;97415.78;5085117;28;20274;-67
2021/04/07 05:23:53;;;;;;;8.07;4.10;;;;;;;2.99;100.00;97413.16;5086702;28;20197;-68
2021/04/07 05:26:19;;;;;;;6.63;4.10;;;;;;;3.18;100.00;97419.25;5086352;28;20209;-69
2021/04/07 05:28:46;;;;;;;5.27;4.07;;;;;;;3.01;100.00;97421.84;5077249;28;20232;-69
2021/04/07 05:31:13;;;;;;;7.50;4.53;;;;;;;4.10;100.00;97422.19;5070096;28;20205;-69
2021/04/07 05:33:42;;;;;;;7.30;3.80;;;;;;;4.78;100.00;97421.66;5071029;28;20225;-69
2021/04/07 05:36:11;;;;;;;5.77;3.93;;;;;;;4.29;100.00;97430.94;5071231;28;20288;-69
2021/04/07 05:38:41;;;;;;;7.53;4.03;;;;;;;4.38;100.00;97431.78;5071327;28;20241;-69
2021/04/07 05:41:09;;;;;;;8.50;4.03;;;;;;;4.71;100.00;97435.75;5071196;28;20212;-69
2021/04/07 05:43:37;;;;;;;6.33;4.03;;;;;;;5.92;100.00;97432.84;5070975;28;20290;-69
2021/04/07 05:46:04;;;;;;;10.40;4.30;;;;;;;7.80;100.00;97426.41;5071412;28;20227;-69
2021/04/07 05:48:30;;;;;;;10.17;4.03;;;;;;;9.08;100.00;97430.47;5071555;28;20268;-69
2021/04/07 05:51:01;;;;;;;6.93;3.90;;;;;;;7.38;100.00;97432.22;5071587;28;20204;-68
2021/04/07 05:53:27;;;;;;;4.73;3.77;;;;;;;7.84;100.00;97430.06;5071952;28;20260;-68
2021/04/07 05:55:55;;;;;;;9.30;3.47;;;;;;;10.51;100.00;97424.03;5070468;28;20254;-68
2021/04/07 05:58:22;;;;;;;5.50;3.30;;;;;;;12.92;100.00;97428.94;5070368;28;20225;-67
2021/04/07 06:00:49;;;;;;;7.90;3.43;;;;;;;12.53;100.00;97430.22;5066293;28;20230;-68
2021/04/07 06:03:16;;;;;;;5.63;3.20;;;;;;;13.38;100.00;97433.28;5055578;28;20636;-68
2021/04/07 06:05:45;;;;;;;4.27;3.07;;;;;;;14.22;100.00;97440.00;5050647;28;20237;-68
2021/04/07 06:08:12;;;;;;;4.97;3.07;;;;;;;14.62;100.00;97432.94;5050232;28;20229;-67
2021/04/07 06:10:41;;;;;;;4.57;3.03;;;;;;;14.83;100.00;97436.75;5067467;28;20296;-68
2021/04/07 06:13:07;;;;;;;6.27;2.87;;;;;;;15.16;100.00;97435.88;5069191;28;20286;-68
2021/04/07 06:15:34;;;;;;;3.90;3.00;;;;;;;14.56;100.00;97445.59;5069753;28;20251;-67
2021/04/07 06:18:01;;;;;;;3.97;2.70;;;;;;;13.56;100.00;97448.22;5069732;28;20232;-68
2021/04/07 06:20:33;;;;;;;5.60;2.90;;;;;;;13.25;100.00;97451.28;5072618;28;20588;-68
2021/04/07 06:23:00;;;;;;;3.87;3.20;;;;;;;12.97;100.00;97459.88;5073231;28;20710;-68
2021/04/07 06:25:27;;;;;;;4.37;3.00;;;;;;;13.83;100.00;97469.19;5072100;28;20658;-69
2021/04/07 06:27:55;;;;;;;6.33;3.40;;;;;;;13.16;100.00;97478.44;5073527;28;20257;-69
2021/04/07 06:33:13;;;;;;;2.70;2.50;;;;;;;11.95;100.00;97473.72;5071988;28;20228;-70
2021/04/07 06:35:40;;;;;;;3.13;2.80;;;;;;;10.26;100.00;97486.00;5072840;28;20209;-70
2021/04/07 06:38:07;;;;;;;3.73;3.17;;;;;;;7.84;100.00;97490.50;5072154;28;20278;-69
2021/04/07 06:40:34;;;;;;;3.60;3.30;;;;;;;7.01;100.00;97495.06;5073444;28;20287;-69
2021/04/07 06:43:02;;;;;;;5.40;3.20;;;;;;;7.62;100.00;97507.31;5072203;28;20216;-69
2021/04/07 06:45:30;;;;;;;5.97;3.23;;;;;;;7.37;100.00;97508.28;5073312;28;20620;-69
2021/04/07 06:47:56;;;;;;;5.30;3.40;;;;;;;7.26;100.00;97509.78;5073725;28;20267;-68
2021/04/07 06:50:24;;;;;;;5.23;3.23;;;;;;;9.07;100.00;97511.41;5075975;28;20202;-69
2021/04/07 06:52:54;;;;;;;4.70;2.83;;;;;;;8.47;100.00;97518.72;5080807;28;20290;-69
2021/04/07 06:55:21;;;;;;;6.80;3.20;;;;;;;7.66;100.00;97516.50;5086174;28;20243;-69
2021/04/07 06:57:47;;;;;;;3.67;2.83;;;;;;;7.43;100.00;97533.56;5076830;28;20229;-68
2021/04/07 07:00:14;;;;;;;4.77;3.60;;;;;;;8.07;100.00;97532.97;5072807;28;20926;-69
2021/04/07 07:02:41;;;;;;;6.23;3.47;;;;;;;8.19;100.00;97532.22;5073097;28;20883;-69
2021/04/07 07:05:08;;;;;;;3.53;2.83;;;;;;;9.23;100.00;97539.06;5074227;28;20258;-67
2021/04/07 07:07:34;;;;;;;5.70;3.33;;;;;;;8.45;100.00;97545.78;5074625;28;20209;-68
2021/04/07 07:10:01;;;;;;;3.33;2.70;;;;;;;7.90;100.00;97552.31;5079639;28;20209;-69
2021/04/07 07:12:31;;;;;;;5.60;3.00;;;;;;;7.39;100.00;97560.88;5080902;28;20266;-69
2021/04/07 07:15:03;;;;;;;4.47;2.77;;;;;;;6.71;100.00;97558.41;5072993;28;20209;-69
2021/04/07 07:17:32;;;;;;;5.10;3.10;;;;;;;5.98;100.00;97562.19;5073030;28;20231;-69
2021/04/07 07:19:58;;;;;;;4.83;3.13;;;;;;;6.80;100.00;97564.69;5073492;28;20581;-69
2021/04/07 07:22:26;;;;;;;4.73;3.57;;;;;;;7.46;100.00;97565.88;5072375;28;20573;-69
2021/04/07 07:25:01;;;;;;;4.03;2.90;;;;;;;7.10;100.00;97563.59;5073859;28;20284;-69
2021/04/07 07:27:36;;;;;;;3.87;2.90;;;;;;;7.07;100.00;97575.22;5074283;28;20240;-69
2021/04/07 07:30:04;;;;;;;5.93;3.07;;;;;;;6.97;100.00;97581.09;5073068;28;20240;-68
2021/04/07 07:32:32;;;;;;;6.10;3.50;;;;;;;7.53;100.00;97583.44;5074811;28;20632;-69
2021/04/07 07:35:13;;;;;;;6.40;3.17;;;;;;;8.23;100.00;97590.88;5073551;28;20209;-68
2021/04/07 07:37:42;;;;;;;5.17;3.00;;;;;;;7.80;100.00;97593.13;5074189;28;20787;-69
2021/04/07 07:40:28;;;;;;;3.97;3.30;;;;;;;6.50;100.00;97606.81;5073201;28;20262;-69
2021/04/07 07:42:55;;;;;;;4.23;3.37;;;;;;;6.26;100.00;97610.03;5072155;28;20304;-69
2021/04/07 07:45:41;;;;;;;5.70;3.10;;;;;;;6.36;100.00;97614.41;5074559;28;20277;-69
2021/04/07 07:48:18;;;;;;;4.93;2.93;;;;;;;5.69;100.00;97627.66;5056268;28;20233;-68
2021/04/07 07:50:47;;;;;;;4.90;3.40;;;;;;;5.27;100.00;97626.41;5072237;28;20571;-69
2021/04/07 07:53:19;;;;;;;4.53;3.13;;;;;;;5.78;100.00;97639.44;5071881;28;20241;-68
2021/04/07 07:55:50;;;;;;;4.17;3.30;;;;;;;6.38;100.00;97636.81;5070954;28;20255;-67
2021/04/07 07:58:16;;;;;;;5.03;3.47;;;;;;;6.01;100.00;97650.00;5071546;28;20251;-67
2021/04/07 08:00:43;;;;;;;4.40;3.40;;;;;;;5.92;100.00;97654.66;5071906;28;20212;-67
2021/04/07 08:03:14;;;;;;;7.40;3.37;;;;;;;6.45;100.00;97651.63;5071250;28;20225;-67
2021/04/07 08:05:43;;;;;;;4.37;3.30;;;;;;;5.92;100.00;97660.13;5071719;28;20213;-67
2021/04/07 08:08:11;;;;;;;6.10;3.30;;;;;;;5.63;100.00;97659.84;5070291;28;20224;-67
2021/04/07 08:10:39;;;;;;;6.97;3.70;;;;;;;5.66;100.00;97655.66;5071289;28;20284;-68
2021/04/07 08:13:09;;;;;;;10.27;3.67;;;;;;;5.69;100.00;97672.25;5071288;28;20205;-67
2021/04/07 08:15:36;;;;;;;6.40;3.50;;;;;;;5.54;100.00;97669.97;5071320;28;20205;-66
2021/04/07 08:18:06;;;;;;;5.43;3.13;;;;;;;5.42;100.00;97669.72;5069177;28;20581;-67
2021/04/07 08:20:33;;;;;;;4.90;3.13;;;;;;;5.38;100.00;97676.97;5071317;28;20306;-66
2021/04/07 08:23:02;;;;;;;4.50;3.20;;;;;;;5.25;100.00;97683.34;5070998;28;20218;-66
2021/04/07 08:25:28;;;;;;;5.97;3.40;;;;;;;5.61;100.00;97686.72;5070453;28;20201;-66
2021/04/07 08:27:55;;;;;;;5.13;3.17;;;;;;;5.51;100.00;97687.00;5071697;28;20248;-66
2021/04/07 08:30:23;;;;;;;7.50;3.70;;;;;;;5.38;100.00;97687.91;5064342;28;20279;-66
2021/04/07 08:32:51;;;;;;;4.77;3.40;;;;;;;5.52;100.00;97694.09;5050049;28;20261;-66
2021/04/07 08:35:19;;;;;;;5.83;3.40;;;;;;;5.70;100.00;97695.78;5051177;28;20650;-66
2021/04/07 08:37:56;;;;;;;4.80;3.60;;;;;;;5.14;100.00;97692.94;5049876;28;20265;-66
2021/04/07 08:40:36;;;;;;;5.43;3.10;;;;;;;4.95;100.00;97701.34;5053197;28;20689;-68
2021/04/07 08:43:03;;;;;;;5.73;3.50;;;;;;;5.27;100.00;97710.38;5070503;28;20225;-67
2021/04/07 08:45:37;;;;;;;8.47;3.80;;;;;;;5.46;100.00;97706.28;5072199;28;20208;-66
2021/04/07 08:48:18;;;;;;;7.90;4.07;;;;;;;5.33;100.00;97711.88;5075633;28;20254;-68
2021/04/07 08:50:47;;;;;;;8.90;4.23;;;;;;;5.19;100.00;97711.94;5111703;28;20210;-68
2021/04/07 08:53:16;;;;;;;6.13;3.50;;;;;;;5.46;100.00;97722.72;5100848;28;20197;-68
2021/04/07 08:55:51;;;;;;;7.47;3.63;;;;;;;5.45;100.00;97715.63;5095002;28;20609;-68
2021/04/07 08:58:24;;;;;;;6.30;3.33;;;;;;;5.90;100.00;97721.78;5074875;28;20223;-68
2021/04/07 09:00:55;;;;;;;7.53;4.00;;;;;;;5.71;100.00;97722.00;5073247;28;20239;-70
2021/04/07 09:03:27;;;;;;;8.03;3.60;;;;;;;5.45;100.00;97731.25;5072132;28;20565;-68
2021/04/07 09:05:54;;;;;;;6.70;3.20;;;;;;;5.95;100.00;97730.66;5090866;28;20570;-69
2021/04/07 09:08:25;;;;;;;7.90;3.10;;;;;;;6.20;100.00;97731.06;5090354;28;20252;-69
2021/04/07 09:10:53;;;;;;;6.50;3.07;;;;;;;7.71;100.00;97727.75;5110520;28;20704;-69
2021/04/07 09:13:23;;;;;;;5.37;3.00;;;;;;;7.50;100.00;97726.03;5110196;28;20215;-68
2021/04/07 09:16:03;;;;;;;9.30;3.33;;;;;;;8.40;100.00;97727.41;5110543;28;20729;-68
2021/04/07 09:18:37;;;;;;;7.37;3.50;;;;;;;8.30;100.00;97716.81;5110462;28;20249;-68
2021/04/07 09:21:06;;;;;;;6.93;3.10;;;;;;;9.28;100.00;97725.25;5110820;28;20199;-69
2021/04/07 09:23:37;;;;;;;5.97;3.20;;;;;;;10.33;100.00;97722.59;5109819;28;20215;-68
2021/04/07 09:26:12;;;;;;;4.03;2.80;;;;;;;10.96;100.00;97728.09;5111379;28;20210;-69
2021/04/07 09:28:43;;;;;;;8.03;2.77;;;;;;;11.31;100.00;97720.03;5111133;28;20300;-69
2021/04/07 09:31:25;;;;;;;4.97;2.50;;;;;;;9.38;100.00;97724.84;5101794;28;20214;-69
2021/04/07 09:33:55;;;;;;;4.50;2.50;;;;;;;7.76;100.00;97741.28;5102279;28;20634;-69
2021/04/07 09:36:38;;;;;;;5.67;2.57;;;;;;;7.59;100.00;97737.81;5101035;28;20212;-69
2021/04/07 09:39:17;;;;;;;5.70;2.90;;;;;;;6.92;100.00;97743.06;5090637;28;20301;-68
2021/04/07 09:41:44;;;;;;;5.03;2.83;;;;;;;7.01;100.00;97752.91;5090577;28;20316;-68
2021/04/07 09:44:12;;;;;;;5.27;2.77;;;;;;;8.32;100.00;97742.03;5090436;28;20876;-68
2021/04/07 09:46:40;;;;;;;5.70;2.77;;;;;;;9.84;100.00;97741.00;5090824;28;20247;-68
2021/04/07 09:49:08;;;;;;;6.03;2.50;;;;;;;10.51;100.00;97734.97;5090600;28;20216;-67
2021/04/07 09:51:45;;;;;;;3.87;2.40;;;;;;;11.37;100.00;97734.41;5090703;28;20295;-69
2021/04/07 09:54:22;;;;;;;5.57;2.10;;;;;;;9.69;100.00;97736.97;5083000;28;20203;-68
2021/04/07 09:56:53;;;;;;;5.43;2.40;;;;;;;9.74;100.00;97733.19;5094041;28;20223;-68
2021/04/07 09:59:30;;;;;;;4.17;2.40;;;;;;;8.77;100.00;97743.03;5094428;28;20575;-68
2021/04/07 10:01:57;;;;;;;6.17;2.40;;;;;;;9.54;100.00;97745.09;5094489;28;20242;-70
2021/04/07 10:04:28;;;;;;;3.50;2.07;;;;;;;8.27;100.00;97740.28;5094341;28;20220;-68
2021/04/07 10:06:54;;;;;;;5.10;2.20;;;;;;;8.37;100.00;97745.41;5094161;28;20262;-69
2021/04/07 10:09:28;;;;;;;4.27;2.00;;;;;;;8.03;100.00;97751.84;5094163;28;20747;-69
2021/04/07 10:11:55;;;;;;;4.03;2.00;;;;;;;8.19;100.00;97752.88;5093872;28;20207;-68
2021/04/07 10:14:22;;;;;;;5.63;2.33;;;;;;;8.94;100.00;97737.41;5075511;28;20204;-68
2021/04/07 10:16:48;;;;;;;12.50;2.30;;;;;;;8.55;100.00;97735.91;5075359;28;20226;-68
2021/04/07 10:19:15;;;;;;;4.27;2.20;;;;;;;7.80;100.00;97757.91;5093736;28;20265;-68
2021/04/07 10:21:44;;;;;;;3.70;1.80;;;;;;;6.79;100.00;97768.72;5094110;28;20304;-68
2021/04/07 10:24:16;;;;;;;5.40;1.73;;;;;;;7.00;100.00;97767.78;5091211;28;20636;-68
2021/04/07 10:26:43;;;;;;;3.93;1.90;;;;;;;7.16;100.00;97770.81;5064798;28;20257;-68
2021/04/07 10:29:22;;;;;;;5.73;2.40;;;;;;;-143.37;100.00;65745.06;5075962;28;20425;-68
2021/04/07 10:31:58;;;;;;;5.10;1.93;;;;;;;-143.37;100.00;65745.06;5084740;28;20475;-68
2021/04/07 10:34:35;;;;;;;4.80;2.03;;;;;;;-143.37;100.00;65745.06;5076006;28;20221;-68
2021/04/07 10:37:02;;;;;;;5.30;1.70;;;;;;;-143.37;100.00;65745.06;5067041;28;20212;-68
2021/04/07 10:39:37;;;;;;;7.20;1.77;;;;;;;-143.37;100.00;65745.06;5086275;28;21002;-67
2021/04/07 10:42:03;;;;;;;4.30;1.93;;;;;;;-143.37;100.00;65745.06;5084508;28;20212;-68
2021/04/07 10:44:32;;;;;;;2.13;1.20;;;;;;;-143.37;100.00;65745.06;5066551;28;20239;-67
2021/04/07 10:46:58;;;;;;;3.67;1.57;;;;;;;-143.37;100.00;65745.06;5093465;28;20250;-68
2021/04/07 10:49:25;;;;;;;3.17;1.10;;;;;;;-143.37;100.00;65745.06;5095280;28;20228;-68
2021/04/07 10:52:00;;;;;;;1.83;1.10;;;;;;;-143.37;100.00;65745.06;5115384;28;20276;-68
2021/04/07 10:54:27;;;;;;;2.30;1.00;;;;;;;-143.37;100.00;65745.06;5119908;28;20256;-68
2021/04/07 10:57:06;;;;;;;2.13;0.90;;;;;;;-143.37;100.00;65745.06;5123437;28;20229;-68
2021/04/07 10:59:33;;;;;;;2.63;1.00;;;;;;;-143.37;100.00;65745.06;5127851;28;20575;-69
2021/04/07 11:02:14;;;;;;;1.70;0.90;;;;;;;-143.37;100.00;65745.06;5114343;28;20200;-67
2021/04/07 11:04:41;;;;;;;2.50;1.40;;;;;;;-143.37;100.00;65745.06;5113294;28;20224;-68
2021/04/07 11:07:12;;;;;;;5.20;1.50;;;;;;;-143.37;100.00;65745.06;5104981;28;20205;-69
2021/04/07 11:09:50;;;;;;;4.47;1.27;;;;;;;-143.37;100.00;65745.06;5072444;28;20221;-68
2021/04/07 11:12:21;;;;;;;1.47;1.03;;;;;;;-143.37;100.00;65745.06;5072884;28;20201;-68
2021/04/07 11:14:52;;;;;;;2.03;1.20;;;;;;;-143.37;100.00;65745.06;5054262;28;20185;-69
2021/04/07 11:17:19;;;;;;;3.53;1.63;;;;;;;-143.37;100.00;65745.06;5072583;28;20323;-68
2021/04/07 11:19:46;;;;;;;5.80;1.40;;;;;;;-143.37;100.00;65745.06;5072343;28;20209;-68
2021/04/07 11:22:13;;;;;;;2.93;1.47;;;;;;;-143.37;100.00;65745.06;5072316;28;20213;-67
2021/04/07 11:24:39;;;;;;;1.83;1.40;;;;;;;-143.37;100.00;65745.06;5072051;28;20221;-69
2021/04/07 11:27:08;;;;;;;2.33;1.23;;;;;;;-143.37;100.00;65745.06;5072056;28;20218;-70
2021/04/07 11:29:36;;;;;;;3.63;1.50;;;;;;;-143.37;100.00;65745.06;5078561;28;20744;-69
2021/04/07 11:32:05;;;;;;;3.30;1.57;;;;;;;-143.37;100.00;65745.06;5092471;28;20281;-69
2021/04/07 11:35:06;;;;;;;2.50;1.40;;;;;;;-143.37;100.00;65745.06;5082524;28;20195;-68
2021/04/07 11:37:54;;;;;;;3.33;1.43;;;;;;;-143.37;100.00;65745.06;5111955;28;20278;-67
2021/04/07 11:43:10;;;;;;;3.93;1.50;;;;;;;-143.37;100.00;65745.06;5093526;28;20208;-66
2021/04/07 11:45:36;;;;;;;4.63;1.70;;;;;;;-143.37;100.00;65745.06;5092482;28;20228;-67
2021/04/07 11:48:03;;;;;;;4.97;1.47;;;;;;;-143.37;100.00;65745.06;5091903;28;20228;-67
2021/04/07 11:50:30;;;;;;;3.43;1.30;;;;;;;-143.37;100.00;65745.06;5092113;28;20295;-67
2021/04/07 11:52:56;;;;;;;3.33;1.20;;;;;;;-143.37;100.00;65745.06;5092061;28;20288;-66
2021/04/07 11:55:22;;;;;;;2.77;1.20;;;;;;;-143.37;100.00;65745.06;5091776;28;20307;-67
2021/04/07 11:57:48;;;;;;;3.60;1.20;;;;;;;-143.37;100.00;65745.06;5091563;28;20231;-66
2021/04/07 12:00:16;;;;;;;4.20;1.40;;;;;;;-143.37;100.00;65745.06;5074001;28;20243;-67
2021/04/07 12:02:44;;;;;;;3.43;1.27;;;;;;;-143.37;100.00;65745.06;5074049;28;20211;-67
2021/04/07 12:05:15;;;;;;;4.70;1.47;;;;;;;-143.37;100.00;65745.06;5074513;28;20224;-66
2021/04/07 12:07:41;;;;;;;2.90;1.40;;;;;;;-143.37;100.00;65745.06;5094964;28;20248;-66
2021/04/07 12:10:08;;;;;;;2.50;1.47;;;;;;;-143.37;100.00;65745.06;5099784;28;20208;-67
2021/04/07 12:12:34;;;;;;;4.40;1.27;;;;;;;-143.37;100.00;65745.06;5102019;28;20208;-66
2021/04/07 12:15:01;;;;;;;2.83;1.13;;;;;;;-143.37;100.00;65745.06;5095752;28;20855;-67
2021/04/07 12:17:27;;;;;;;5.17;1.67;;;;;;;-143.37;100.00;65745.06;5091150;28;20548;-67